createdAt,value
2023-12-30T00:01:36.169Z,14.75
2023-12-30T00:04:03.278Z,14.74
2023-12-30T00:06:30.089Z,14.73
2023-12-30T00:08:56.744Z,14.74
2023-12-30T00:11:23.500Z,14.76
2023-12-30T00:13:50.107Z,14.75
2023-12-30T00:16:16.760Z,14.80
2023-12-30T00:18:43.505Z,14.81
2023-12-30T00:21:10.672Z,14.85
2023-12-30T00:23:43.309Z,14.88
2023-12-30T00:26:22.491Z,14.88
2023-12-30T00:28:50.074Z,14.88
2023-12-30T00:31:26.036Z,14.92
2023-12-30T00:33:53.904Z,14.88
2023-12-30T00:36:20.609Z,14.89
2023-12-30T00:38:47.244Z,14.89
2023-12-30T00:41:14.412Z,14.85
2023-12-30T00:43:44.576Z,14.81
2023-12-30T00:46:11.210Z,14.79
2023-12-30T00:48:37.909Z,14.80
2023-12-30T00:51:04.697Z,14.78
2023-12-30T00:53:31.347Z,14.78
2023-12-30T00:55:58.116Z,14.78
2023-12-30T00:58:25.194Z,14.79
2023-12-30T01:00:52.165Z,14.79
2023-12-30T01:03:18.871Z,14.77
2023-12-30T01:05:45.815Z,14.78
2023-12-30T01:08:12.674Z,14.78
2023-12-30T01:10:39.576Z,14.77
2023-12-30T01:13:09.635Z,14.78
2023-12-30T01:15:36.436Z,14.77
2023-12-30T01:18:04.088Z,14.76
2023-12-30T01:20:31.300Z,14.74
2023-12-30T01:22:58.043Z,14.73
2023-12-30T01:25:24.765Z,14.73
2023-12-30T01:27:51.500Z,14.71
2023-12-30T01:30:18.308Z,14.73
2023-12-30T01:32:45.861Z,14.72
2023-12-30T01:35:12.578Z,14.74
2023-12-30T01:37:40.307Z,14.76
2023-12-30T01:40:07.477Z,14.76
2023-12-30T01:42:34.112Z,14.76
2023-12-30T01:45:00.806Z,14.76
2023-12-30T01:47:27.458Z,14.77
2023-12-30T01:49:54.221Z,14.75
2023-12-30T01:52:20.997Z,14.73
2023-12-30T01:54:47.888Z,14.72
2023-12-30T01:57:14.571Z,14.72
2023-12-30T01:59:41.280Z,14.70
2023-12-30T02:02:08.050Z,14.72
2023-12-30T02:04:34.823Z,14.71
2023-12-30T02:07:01.626Z,14.70
2023-12-30T02:09:28.524Z,14.71
2023-12-30T02:11:55.239Z,14.69
2023-12-30T02:14:25.350Z,14.70
2023-12-30T02:16:52.117Z,14.68
2023-12-30T02:19:18.882Z,14.69
2023-12-30T02:21:45.947Z,14.94
2023-12-30T02:24:13.318Z,14.92
2023-12-30T02:26:41.017Z,14.92
2023-12-30T02:29:08.294Z,14.93
2023-12-30T02:31:36.845Z,14.91
2023-12-30T02:34:03.613Z,14.81
2023-12-30T02:36:30.282Z,14.68
2023-12-30T02:38:57.660Z,14.65
2023-12-30T02:41:24.582Z,14.66
2023-12-30T02:43:56.167Z,14.67
2023-12-30T02:46:22.844Z,14.70
2023-12-30T02:48:49.603Z,14.67
2023-12-30T02:51:16.786Z,14.90
2023-12-30T02:53:43.416Z,15.01
2023-12-30T02:56:23.668Z,14.76
2023-12-30T02:58:57.508Z,14.73
2023-12-30T03:01:25.971Z,14.93
2023-12-30T03:03:53.556Z,15.01
2023-12-30T03:06:21.292Z,15.11
2023-12-30T03:08:50.891Z,15.16
2023-12-30T03:11:17.703Z,15.13
2023-12-30T03:13:44.428Z,15.17
2023-12-30T03:16:17.528Z,15.17
2023-12-30T03:18:44.767Z,15.18
2023-12-30T03:21:14.070Z,15.18
2023-12-30T03:23:40.854Z,15.18
2023-12-30T03:26:09.157Z,15.19
2023-12-30T03:28:35.849Z,15.21
2023-12-30T03:31:02.600Z,15.18
2023-12-30T03:33:29.351Z,14.88
2023-12-30T03:35:56.098Z,15.13
2023-12-30T03:38:22.751Z,14.75
2023-12-30T03:40:49.431Z,14.70
2023-12-30T03:43:16.116Z,14.70
2023-12-30T03:45:42.843Z,14.72
2023-12-30T03:48:09.830Z,14.72
2023-12-30T03:50:38.417Z,14.70
2023-12-30T03:53:06.266Z,14.66
2023-12-30T03:55:33.058Z,14.66
2023-12-30T03:58:00.109Z,14.68
2023-12-30T04:00:26.859Z,14.65
2023-12-30T04:02:53.671Z,14.67
2023-12-30T04:05:20.432Z,14.66
2023-12-30T04:07:47.128Z,14.64
2023-12-30T04:10:16.323Z,14.62
2023-12-30T04:12:43.383Z,14.62
2023-12-30T04:15:10.850Z,14.64
2023-12-30T04:17:38.106Z,14.64
2023-12-30T04:20:06.798Z,14.61
2023-12-30T04:22:33.994Z,14.59
2023-12-30T04:25:01.187Z,14.62
2023-12-30T04:27:28.602Z,14.59
2023-12-30T04:29:55.373Z,14.57
2023-12-30T04:32:22.399Z,14.61
2023-12-30T04:34:50.124Z,14.63
2023-12-30T04:37:17.008Z,14.62
2023-12-30T04:39:43.702Z,14.63
2023-12-30T04:42:10.344Z,14.64
2023-12-30T04:44:37.008Z,14.67
2023-12-30T04:47:03.638Z,14.85
2023-12-30T04:49:30.393Z,14.91
2023-12-30T04:51:57.172Z,14.96
2023-12-30T04:54:24.103Z,14.99
2023-12-30T04:56:52.373Z,14.86
2023-12-30T04:59:19.635Z,14.72
2023-12-30T05:01:46.300Z,14.99
2023-12-30T05:04:12.986Z,14.70
2023-12-30T05:06:39.627Z,14.65
2023-12-30T05:09:07.032Z,14.68
2023-12-30T05:11:33.676Z,14.81
2023-12-30T05:14:00.627Z,14.87
2023-12-30T05:16:27.438Z,14.83
2023-12-30T05:18:54.364Z,14.83
2023-12-30T05:21:21.130Z,14.58
2023-12-30T05:23:47.822Z,14.56
2023-12-30T05:26:14.785Z,14.57
2023-12-30T05:28:41.473Z,14.57
2023-12-30T05:31:08.481Z,14.58
2023-12-30T05:33:35.503Z,14.58
2023-12-30T05:36:02.201Z,14.59
2023-12-30T05:38:28.853Z,14.62
2023-12-30T05:40:55.529Z,14.93
2023-12-30T05:43:24.124Z,14.77
2023-12-30T05:45:51.000Z,14.64
2023-12-30T05:48:17.879Z,14.62
2023-12-30T05:50:44.649Z,14.62
2023-12-30T05:53:12.343Z,14.60
2023-12-30T05:55:42.015Z,14.60
2023-12-30T05:58:08.804Z,14.57
2023-12-30T06:00:36.250Z,14.57
2023-12-30T06:03:03.287Z,14.63
2023-12-30T06:05:30.496Z,14.61
2023-12-30T06:07:57.213Z,14.61
2023-12-30T06:10:24.699Z,14.64
2023-12-30T06:12:51.947Z,14.67
2023-12-30T06:15:21.576Z,14.69
2023-12-30T06:17:48.478Z,14.69
2023-12-30T06:20:15.262Z,14.60
2023-12-30T06:22:41.878Z,14.69
2023-12-30T06:25:08.727Z,14.71
2023-12-30T06:27:35.494Z,14.64
2023-12-30T06:30:02.708Z,14.60
2023-12-30T06:32:29.510Z,14.59
2023-12-30T06:34:56.361Z,14.57
2023-12-30T06:37:23.005Z,14.54
2023-12-30T06:39:49.773Z,14.60
2023-12-30T06:42:16.416Z,14.58
2023-12-30T06:44:43.026Z,14.56
2023-12-30T06:47:09.710Z,14.57
2023-12-30T06:49:40.467Z,14.54
2023-12-30T06:52:07.681Z,14.52
2023-12-30T06:54:34.979Z,14.49
2023-12-30T06:57:01.778Z,14.47
2023-12-30T06:59:28.580Z,14.47
2023-12-30T07:01:55.223Z,14.50
2023-12-30T07:04:22.679Z,14.53
2023-12-30T07:06:49.441Z,14.54
2023-12-30T07:09:16.150Z,14.56
2023-12-30T07:11:42.805Z,14.85
2023-12-30T07:14:09.485Z,14.67
2023-12-30T07:16:36.213Z,14.62
2023-12-30T07:19:03.473Z,14.60
2023-12-30T07:21:30.893Z,14.59
2023-12-30T07:23:57.569Z,14.58
2023-12-30T07:26:24.214Z,14.58
2023-12-30T07:28:50.851Z,14.59
2023-12-30T07:31:17.626Z,14.59
2023-12-30T07:33:44.480Z,14.59
2023-12-30T07:36:12.089Z,14.53
2023-12-30T07:38:38.716Z,14.53
2023-12-30T07:41:05.337Z,14.51
2023-12-30T07:43:32.063Z,14.47
2023-12-30T07:45:59.028Z,14.49
2023-12-30T07:48:25.693Z,14.51
2023-12-30T07:50:52.357Z,14.51
2023-12-30T07:53:18.964Z,14.51
2023-12-30T07:55:45.746Z,14.52
2023-12-30T07:58:12.429Z,14.69
2023-12-30T08:00:39.353Z,14.69
2023-12-30T08:03:06.559Z,14.61
2023-12-30T08:05:33.524Z,14.57
2023-12-30T08:08:00.230Z,14.62
2023-12-30T08:10:26.981Z,14.58
2023-12-30T08:12:53.660Z,14.56
2023-12-30T08:15:20.403Z,14.61
2023-12-30T08:17:47.228Z,14.56
2023-12-30T08:20:14.522Z,14.52
2023-12-30T08:22:41.227Z,14.51
2023-12-30T08:25:09.478Z,14.47
2023-12-30T08:27:36.552Z,14.56
2023-12-30T08:30:04.221Z,14.62
2023-12-30T08:32:30.928Z,14.59
2023-12-30T08:34:58.605Z,14.60
2023-12-30T08:37:25.490Z,14.62
2023-12-30T08:39:52.193Z,14.63
2023-12-30T08:42:19.214Z,14.62
2023-12-30T08:44:45.868Z,14.62
2023-12-30T08:47:12.830Z,14.61
2023-12-30T08:49:39.694Z,14.63
2023-12-30T08:52:06.487Z,14.65
2023-12-30T08:54:33.228Z,14.59
2023-12-30T08:56:59.954Z,14.58
2023-12-30T08:59:27.070Z,14.58
2023-12-30T09:01:53.884Z,14.58
2023-12-30T09:04:20.828Z,14.58
2023-12-30T09:06:47.826Z,14.59
2023-12-30T09:09:14.493Z,14.60
2023-12-30T09:11:41.329Z,14.61
2023-12-30T09:14:08.012Z,14.62
2023-12-30T09:16:34.826Z,14.59
2023-12-30T09:19:01.728Z,14.56
2023-12-30T09:21:30.692Z,14.56
2023-12-30T09:23:58.242Z,14.63
2023-12-30T09:26:25.548Z,14.65
2023-12-30T09:28:53.297Z,14.59
2023-12-30T09:31:21.615Z,14.62
2023-12-30T09:33:50.287Z,14.59
2023-12-30T09:36:18.462Z,14.61
2023-12-30T09:38:45.330Z,14.60
2023-12-30T09:41:14.134Z,14.58
2023-12-30T09:43:40.909Z,14.58
2023-12-30T09:46:07.579Z,14.57
2023-12-30T09:48:34.450Z,14.55
2023-12-30T09:51:01.102Z,14.56
2023-12-30T09:53:28.341Z,14.55
2023-12-30T09:55:55.222Z,14.54
2023-12-30T09:58:22.523Z,14.54
2023-12-30T10:00:49.722Z,14.52
2023-12-30T10:03:17.522Z,14.51
2023-12-30T10:05:44.488Z,14.53
2023-12-30T10:08:11.503Z,14.52
2023-12-30T10:10:45.167Z,14.55
2023-12-30T10:13:17.611Z,14.56
2023-12-30T10:15:44.478Z,14.56
2023-12-30T10:18:11.746Z,14.56
2023-12-30T10:20:40.263Z,14.57
2023-12-30T10:23:07.914Z,14.56
2023-12-30T10:25:35.320Z,14.57
2023-12-30T10:28:02.594Z,14.57
2023-12-30T10:30:31.752Z,14.58
2023-12-30T10:33:14.868Z,14.58
2023-12-30T10:35:45.424Z,14.60
2023-12-30T10:38:14.015Z,14.62
2023-12-30T10:40:41.273Z,14.65
2023-12-30T10:43:10.023Z,14.67
2023-12-30T10:45:37.076Z,14.68
2023-12-30T10:48:04.057Z,14.69
2023-12-30T10:50:31.931Z,14.70
2023-12-30T10:53:03.628Z,14.71
2023-12-30T10:55:36.743Z,14.70
2023-12-30T10:58:20.843Z,14.74
2023-12-30T11:00:57.378Z,14.72
2023-12-30T11:03:24.625Z,14.73
2023-12-30T11:06:02.860Z,14.74
2023-12-30T11:08:29.798Z,14.76
2023-12-30T11:10:59.379Z,14.78
2023-12-30T11:13:26.248Z,14.76
2023-12-30T11:15:53.233Z,14.74
2023-12-30T11:18:46.965Z,14.74
2023-12-30T11:21:14.086Z,14.71
2023-12-30T11:23:40.744Z,14.75
2023-12-30T11:26:07.367Z,14.77
2023-12-30T11:28:34.094Z,14.79
2023-12-30T11:31:01.442Z,14.80
2023-12-30T11:33:28.502Z,14.82
2023-12-30T11:35:55.730Z,14.82
2023-12-30T11:38:22.473Z,14.96
2023-12-30T11:40:53.306Z,15.02
2023-12-30T11:43:21.453Z,14.85
2023-12-30T11:45:48.983Z,14.93
2023-12-30T11:48:16.053Z,14.86
2023-12-30T11:50:43.362Z,14.83
2023-12-30T11:53:10.034Z,14.93
2023-12-30T11:55:36.765Z,14.98
2023-12-30T11:58:03.630Z,15.03
2023-12-30T12:00:30.354Z,15.04
2023-12-30T12:02:58.098Z,15.02
2023-12-30T12:05:24.746Z,15.03
2023-12-30T12:07:51.410Z,15.03
2023-12-30T12:10:18.490Z,15.02
2023-12-30T12:12:46.928Z,15.03
2023-12-30T12:15:14.467Z,15.03
2023-12-30T12:17:41.737Z,15.03
2023-12-30T12:20:09.943Z,15.03
2023-12-30T12:22:37.355Z,15.59
2023-12-30T12:25:04.340Z,17.12
2023-12-30T12:27:31.235Z,18.44
2023-12-30T12:29:57.915Z,19.91
2023-12-30T12:32:25.386Z,21.02
2023-12-30T12:34:55.196Z,22.11
2023-12-30T12:37:23.178Z,22.92
2023-12-30T12:39:49.849Z,23.84
2023-12-30T12:42:26.980Z,24.53
2023-12-30T12:44:57.549Z,25.41
2023-12-30T12:47:24.358Z,25.83
2023-12-30T12:49:51.092Z,26.23
2023-12-30T12:52:17.826Z,26.63
2023-12-30T12:54:44.763Z,27.53
2023-12-30T12:57:11.769Z,27.83
2023-12-30T12:59:39.182Z,27.60
2023-12-30T13:02:06.132Z,27.14
2023-12-30T13:04:32.854Z,26.64
2023-12-30T13:06:59.585Z,26.21
2023-12-30T13:09:46.531Z,25.84
2023-12-30T13:12:14.340Z,25.44
2023-12-30T13:14:42.497Z,25.12
2023-12-30T13:17:13.632Z,25.49
2023-12-30T13:19:45.241Z,26.62
2023-12-30T13:22:12.497Z,27.21
2023-12-30T13:24:39.509Z,27.49
2023-12-30T13:27:13.232Z,27.39
2023-12-30T13:29:39.998Z,27.16
2023-12-30T13:32:06.911Z,26.86
2023-12-30T13:34:35.590Z,26.63
2023-12-30T13:37:07.239Z,26.44
2023-12-30T13:39:35.212Z,26.30
2023-12-30T13:42:05.587Z,26.11
2023-12-30T13:44:42.091Z,25.94
2023-12-30T13:47:27.771Z,25.78
2023-12-30T13:50:12.492Z,25.61
2023-12-30T13:52:39.181Z,26.12
2023-12-30T13:55:14.182Z,26.64
2023-12-30T13:57:41.710Z,26.91
2023-12-30T14:00:08.776Z,26.95
2023-12-30T14:02:39.761Z,26.93
2023-12-30T14:05:08.885Z,26.81
2023-12-30T14:07:35.867Z,26.69
2023-12-30T14:10:07.652Z,26.59
2023-12-30T14:12:35.900Z,26.46
2023-12-30T14:15:07.869Z,26.39
2023-12-30T14:17:36.290Z,26.31
2023-12-30T14:20:06.495Z,26.23
2023-12-30T14:22:33.640Z,26.15
2023-12-30T14:25:01.389Z,26.10
2023-12-30T14:27:28.111Z,25.96
2023-12-30T14:29:59.201Z,25.89
2023-12-30T14:32:26.076Z,25.84
2023-12-30T14:34:53.242Z,25.77
2023-12-30T14:37:20.023Z,25.72
2023-12-30T14:39:46.711Z,25.72
2023-12-30T14:42:13.463Z,25.65
2023-12-30T14:44:40.803Z,25.61
2023-12-30T14:47:07.418Z,25.56
2023-12-30T14:49:34.109Z,25.51
2023-12-30T14:52:00.826Z,25.46
2023-12-30T14:54:27.477Z,25.39
2023-12-30T14:56:54.650Z,25.28
2023-12-30T14:59:21.332Z,25.26
2023-12-30T15:01:48.283Z,25.24
2023-12-30T15:04:14.981Z,25.17
2023-12-30T15:06:42.548Z,25.06
2023-12-30T15:09:11.106Z,25.02
2023-12-30T15:11:37.905Z,24.98
2023-12-30T15:14:06.249Z,24.95
2023-12-30T15:16:33.085Z,24.92
2023-12-30T15:19:00.528Z,24.98
2023-12-30T15:21:27.434Z,24.88
2023-12-30T15:23:54.178Z,24.84
2023-12-30T15:26:20.912Z,24.78
2023-12-30T15:28:48.272Z,24.74
2023-12-30T15:31:15.017Z,24.69
2023-12-30T15:33:41.850Z,24.67
2023-12-30T15:36:08.581Z,24.62
2023-12-30T15:42:13.193Z,24.54
2023-12-30T15:44:39.896Z,24.53
2023-12-30T15:47:08.494Z,24.48
2023-12-30T15:49:35.573Z,24.44
2023-12-30T15:52:02.352Z,24.43
2023-12-30T15:54:29.056Z,24.39
2023-12-30T15:56:55.691Z,24.38
2023-12-30T15:59:22.304Z,24.36
2023-12-30T16:01:49.410Z,24.32
2023-12-30T16:04:16.128Z,24.31
2023-12-30T16:06:42.769Z,24.25
2023-12-30T16:09:09.438Z,24.22
2023-12-30T16:11:36.824Z,24.15
2023-12-30T16:14:05.723Z,24.09
2023-12-30T16:16:34.909Z,24.08
2023-12-30T16:19:01.921Z,24.04
2023-12-30T16:21:28.648Z,24.02
2023-12-30T16:23:55.296Z,23.99
2023-12-30T16:26:23.984Z,23.96
2023-12-30T16:28:50.605Z,23.92
2023-12-30T16:31:17.370Z,23.87
2023-12-30T16:33:44.961Z,23.86
2023-12-30T16:36:12.748Z,23.82
2023-12-30T16:38:39.412Z,23.78
2023-12-30T16:41:06.061Z,23.74
2023-12-30T16:43:33.355Z,23.70
2023-12-30T16:46:00.439Z,23.67
2023-12-30T16:48:27.241Z,23.62
2023-12-30T16:50:53.908Z,23.57
2023-12-30T16:53:20.546Z,23.53
2023-12-30T16:55:47.293Z,23.47
2023-12-30T16:58:14.061Z,23.42
2023-12-30T17:00:40.707Z,23.35
2023-12-30T17:03:07.693Z,23.30
2023-12-30T17:05:34.376Z,23.29
2023-12-30T17:08:00.983Z,23.26
2023-12-30T17:10:27.622Z,23.19
2023-12-30T17:12:54.222Z,23.16
2023-12-30T17:15:20.842Z,23.16
2023-12-30T17:17:47.511Z,23.09
2023-12-30T17:20:16.978Z,23.05
2023-12-30T17:22:43.840Z,23.03
2023-12-30T17:25:10.598Z,22.95
2023-12-30T17:27:37.521Z,22.95
2023-12-30T17:30:07.259Z,22.88
2023-12-30T17:32:34.471Z,22.81
2023-12-30T17:35:01.158Z,22.78
2023-12-30T17:37:27.918Z,22.75
2023-12-30T17:39:54.661Z,22.72
2023-12-30T17:42:21.952Z,22.67
2023-12-30T17:44:50.543Z,22.62
2023-12-30T17:47:17.220Z,22.56
2023-12-30T17:53:23.762Z,22.50
2023-12-30T17:55:50.666Z,22.47
2023-12-30T17:58:17.408Z,22.45
2023-12-30T18:00:44.135Z,22.40
2023-12-30T18:03:11.231Z,22.36
2023-12-30T18:05:38.197Z,22.35
2023-12-30T18:08:07.461Z,22.26
2023-12-30T18:10:34.663Z,22.21
2023-12-30T18:13:01.654Z,22.19
2023-12-30T18:15:28.770Z,22.14
2023-12-30T18:17:55.520Z,22.13
2023-12-30T18:20:25.608Z,22.12
2023-12-30T18:22:52.731Z,22.10
2023-12-30T18:25:20.684Z,22.06
2023-12-30T18:27:47.545Z,22.05
2023-12-30T18:30:14.681Z,22.01
2023-12-30T18:32:41.344Z,21.98
2023-12-30T18:35:08.279Z,21.95
2023-12-30T18:37:35.458Z,21.88
2023-12-30T18:40:03.810Z,21.83
2023-12-30T18:42:30.584Z,21.79
2023-12-30T18:44:57.264Z,21.75
2023-12-30T18:47:23.913Z,21.71
2023-12-30T18:49:50.590Z,21.66
2023-12-30T18:52:18.970Z,21.60
2023-12-30T18:54:45.667Z,21.61
2023-12-30T18:57:12.686Z,21.54
2023-12-30T18:59:39.292Z,21.46
2023-12-30T19:02:06.024Z,21.43
2023-12-30T19:04:35.948Z,21.41
2023-12-30T19:07:04.318Z,21.38
2023-12-30T19:09:31.059Z,21.36
2023-12-30T19:11:57.761Z,21.36
2023-12-30T19:14:24.822Z,21.34
2023-12-30T19:16:51.680Z,21.29
2023-12-30T19:19:18.537Z,21.28
2023-12-30T19:21:45.190Z,21.22
2023-12-30T19:24:11.830Z,21.19
2023-12-30T19:26:38.637Z,21.17
2023-12-30T19:29:05.254Z,21.15
2023-12-30T19:31:32.008Z,21.11
2023-12-30T19:33:58.735Z,21.07
2023-12-30T19:36:26.007Z,21.00
2023-12-30T19:38:56.128Z,20.95
2023-12-30T19:41:22.796Z,20.91
2023-12-30T19:43:49.535Z,20.90
2023-12-30T19:46:16.257Z,20.87
2023-12-30T19:48:43.690Z,20.78
2023-12-30T19:51:10.765Z,20.75
2023-12-30T19:53:37.535Z,20.70
2023-12-30T19:56:04.521Z,20.70
2023-12-30T19:58:32.159Z,20.68
2023-12-30T20:00:59.138Z,20.67
2023-12-30T20:03:25.813Z,20.64
2023-12-30T20:05:53.256Z,20.64
2023-12-30T20:08:20.085Z,20.58
2023-12-30T20:10:47.914Z,20.52
2023-12-30T20:13:15.186Z,20.46
2023-12-30T20:15:41.945Z,20.45
2023-12-30T20:18:08.649Z,20.42
2023-12-30T20:20:35.333Z,20.53
2023-12-30T20:23:02.220Z,20.39
2023-12-30T20:25:31.807Z,20.35
2023-12-30T20:27:58.864Z,20.31
2023-12-30T20:30:25.754Z,20.28
2023-12-30T20:32:52.427Z,20.24
2023-12-30T20:35:19.092Z,20.25
2023-12-30T20:37:45.795Z,20.21
2023-12-30T20:40:12.981Z,20.20
2023-12-30T20:42:39.996Z,20.20
2023-12-30T20:45:06.818Z,20.15
2023-12-30T20:47:33.611Z,20.09
2023-12-30T20:50:00.322Z,20.09
2023-12-30T20:52:27.031Z,20.04
2023-12-30T20:54:53.687Z,20.02
2023-12-30T20:57:20.370Z,20.01
2023-12-30T20:59:47.328Z,19.95
2023-12-30T21:02:16.320Z,19.90
2023-12-30T21:04:43.152Z,19.89
2023-12-30T21:07:09.888Z,19.86
2023-12-30T21:09:38.625Z,19.84
2023-12-30T21:12:08.119Z,19.81
2023-12-30T21:14:34.900Z,19.75
2023-12-30T21:17:04.519Z,19.73
2023-12-30T21:19:35.621Z,19.71
2023-12-30T21:22:02.462Z,19.66
2023-12-30T21:24:29.156Z,19.61
2023-12-30T21:26:55.810Z,19.57
2023-12-30T21:29:24.165Z,19.56
2023-12-30T21:31:53.610Z,19.54
2023-12-30T21:34:20.268Z,19.48
2023-12-30T21:36:46.886Z,19.47
2023-12-30T21:39:13.974Z,19.42
2023-12-30T21:41:40.943Z,19.39
2023-12-30T21:44:07.658Z,19.34
2023-12-30T21:46:36.076Z,19.31
2023-12-30T21:49:02.764Z,19.26
2023-12-30T21:51:29.434Z,19.21
2023-12-30T21:53:56.155Z,19.20
2023-12-30T21:56:25.837Z,19.16
2023-12-30T21:58:52.492Z,19.12
2023-12-30T22:01:19.258Z,19.10
2023-12-30T22:03:45.987Z,19.05
2023-12-30T22:06:13.530Z,19.04
2023-12-30T22:08:41.008Z,18.98
2023-12-30T22:11:07.653Z,18.90
2023-12-30T22:13:34.295Z,18.86
2023-12-30T22:16:01.982Z,18.87
2023-12-30T22:18:29.033Z,18.81
2023-12-30T22:20:55.923Z,18.79
2023-12-30T22:23:22.937Z,18.77
2023-12-30T22:25:49.719Z,18.73
2023-12-30T22:28:16.370Z,18.73
2023-12-30T22:30:43.125Z,18.69
2023-12-30T22:33:10.006Z,18.64
2023-12-30T22:35:36.696Z,18.61
2023-12-30T22:38:03.659Z,18.57
2023-12-30T22:40:30.500Z,18.56
2023-12-30T22:42:57.208Z,18.53
2023-12-30T22:45:24.223Z,18.51
2023-12-30T22:47:51.030Z,18.47
2023-12-30T22:50:18.327Z,18.47
2023-12-30T22:52:45.126Z,18.44
2023-12-30T22:55:11.908Z,18.41
2023-12-30T22:57:38.707Z,18.42
2023-12-30T23:00:11.275Z,18.37
2023-12-30T23:02:38.290Z,18.31
2023-12-30T23:05:05.336Z,18.28
2023-12-30T23:07:32.089Z,18.23
2023-12-30T23:09:58.783Z,18.23
2023-12-30T23:12:25.842Z,18.23
2023-12-30T23:14:52.509Z,18.22
2023-12-30T23:17:19.157Z,18.17
2023-12-30T23:19:46.623Z,18.15
2023-12-30T23:22:13.912Z,18.14
2023-12-30T23:24:40.766Z,18.11
2023-12-30T23:27:07.416Z,18.06
2023-12-30T23:29:34.335Z,18.06
2023-12-30T23:32:00.955Z,18.04
2023-12-30T23:34:39.039Z,18.03
2023-12-30T23:37:12.431Z,18.02
2023-12-30T23:39:39.282Z,17.96
2023-12-30T23:42:08.030Z,17.88
2023-12-30T23:44:34.804Z,17.84
2023-12-30T23:47:01.493Z,17.82
2023-12-30T23:49:28.223Z,17.75
2023-12-30T23:51:54.849Z,17.76
2023-12-30T23:54:21.495Z,17.75
2023-12-30T23:56:48.156Z,17.74
2023-12-30T23:59:18.230Z,17.66
